Time;durP1;ratioP1;P1;durP2;ratioP2;P2;SDS_P1;SDS_P2;PMS_P1;PMS_P2;Temp;Humidity;BMP_temperature;BMP_pressure;BME280_temperature;BME280_humidity;BME280_pressure;Samples;Min_cycle;Max_cycle;Signal;HPM_P1;HPM_P2
2022/02/21 06:54:26;;;;;;;;;1.00;0.00;;;;;17.70;57.12;100974.16;5075304;27;45614;-74
2022/02/21 06:56:51;;;;;;;;;1.25;0.75;;;;;17.92;56.99;100967.91;5066179;27;45550;-75
2022/02/21 06:59:17;;;;;;;;;0.00;0.00;;;;;18.22;57.10;100974.44;5056085;27;45470;-75
2022/02/21 07:01:42;;;;;;;;;1.50;0.00;;;;;18.59;56.61;100966.97;5070253;27;45521;-74
2022/02/21 07:04:07;;;;;;;;;0.00;0.00;;;;;18.94;56.31;100977.41;5068671;28;45398;-74
2022/02/21 07:06:35;;;;;;;;;0.00;0.00;;;;;19.32;55.65;100983.16;5065548;27;50915;-74
2022/02/21 07:09:01;;;;;;;;;0.00;0.00;;;;;19.71;55.17;100987.81;5069137;27;45578;-74
2022/02/21 07:11:26;;;;;;;;;0.00;0.00;;;;;20.04;54.51;100995.75;5066315;27;45482;-74
2022/02/21 07:13:51;;;;;;;;;0.67;0.67;;;;;20.33;54.17;100986.84;5069604;27;47561;-74
2022/02/21 07:16:17;;;;;;;;;0.33;0.33;;;;;20.62;53.98;100987.81;5065915;27;45479;-74
2022/02/21 07:18:42;;;;;;;;;1.00;1.00;;;;;20.89;52.91;101008.69;5064868;27;45990;-73
2022/02/21 07:21:07;;;;;;;;;0.00;0.00;;;;;21.13;52.48;101009.22;5064289;27;50492;-76
2022/02/21 07:23:35;;;;;;;;;1.00;0.00;;;;;21.34;51.74;101014.41;5056707;27;47816;-76
2022/02/21 07:26:01;;;;;;;;;2.00;0.00;;;;;21.49;51.26;101014.78;5063599;27;45607;-76
2022/02/21 07:28:26;;;;;;;;;2.33;2.33;;;;;21.61;49.48;101009.19;5065733;27;45703;-76
2022/02/21 07:30:51;;;;;;;;;1.67;1.67;;;;;21.69;46.71;101014.69;5063532;27;45776;-75
2022/02/21 07:33:17;;;;;;;;;2.33;2.00;;;;;21.74;45.14;101022.38;5062835;27;45695;-76
2022/02/21 07:35:42;;;;;;;;;2.33;2.33;;;;;21.75;43.72;101034.88;5065597;27;46156;-76
2022/02/21 07:38:07;;;;;;;;;2.00;2.00;;;;;21.73;42.90;101032.31;5064380;27;45418;-75
2022/02/21 07:40:33;;;;;;;;;1.33;1.33;;;;;21.70;41.37;101033.44;5066722;27;45443;-73
2022/02/21 07:42:58;;;;;;;;;4.33;0.33;;;;;21.50;39.98;101026.44;5064028;27;46073;-76
2022/02/21 07:45:25;;;;;;;;;3.00;2.67;;;;;21.25;39.88;101018.00;5065353;27;45430;-74
2022/02/21 07:47:52;;;;;;;;;1.00;1.00;;;;;21.02;39.71;101021.88;5061770;27;45612;-75
2022/02/21 07:50:19;;;;;;;;;3.00;2.33;;;;;20.78;39.19;101014.22;5061773;27;45427;-76
2022/02/21 07:52:45;;;;;;;;;2.67;2.00;;;;;20.45;38.94;101010.94;5064133;27;46047;-73
2022/02/21 07:55:12;;;;;;;;;2.00;2.00;;;;;20.14;39.21;101025.38;5067633;27;45478;-73
2022/02/21 10:35:22;;;;;;;;;10.75;7.75;;;;;14.26;49.60;101058.47;5036606;28;45419;-71
2022/02/21 10:37:50;;;;;;;;;16.25;13.25;;;;;14.60;49.54;101040.22;5061084;28;45542;-71
2022/02/21 10:40:19;;;;;;;;;19.50;10.75;;;;;14.95;48.85;101087.81;5068989;27;45540;-71
2022/02/21 10:43:01;;;;;;;;;9.50;8.00;;;;;15.35;49.04;101067.34;5068346;27;45615;-71
2022/02/21 10:45:29;;;;;;;;;15.25;8.75;;;;;15.70;48.73;101066.72;5057748;27;45477;-71
2022/02/21 10:48:06;;;;;;;;;11.00;7.75;;;;;16.02;47.85;101043.97;5063827;28;45758;-70
2022/02/21 10:50:36;;;;;;;;;8.00;5.25;;;;;16.31;46.87;101065.94;5066274;27;50174;-73
2022/02/21 10:53:08;;;;;;;;;8.50;6.25;;;;;16.59;46.52;101073.75;5061895;28;46143;-79
2022/02/21 10:55:35;;;;;;;;;9.00;5.00;;;;;16.82;46.07;101045.25;5062107;28;46181;-76
2022/02/21 10:58:16;;;;;;;;;5.00;4.25;;;;;17.09;45.88;101068.25;5064635;27;45737;-77
2022/02/21 11:00:42;;;;;;;;;7.00;5.00;;;;;17.38;45.46;101057.09;5062327;28;45477;-76
2022/02/21 11:03:08;;;;;;;;;6.75;3.25;;;;;17.69;45.04;101048.47;5060823;28;45623;-76
2022/02/21 11:05:35;;;;;;;;;5.50;4.75;;;;;17.98;45.15;101047.97;5062986;27;46840;-76
2022/02/21 11:08:02;;;;;;;;;7.50;4.00;;;;;18.24;44.70;101050.41;5065668;28;45439;-75
2022/02/21 11:10:27;;;;;;;;;6.00;5.75;;;;;18.52;44.19;101052.66;5064576;28;45390;-75
2022/02/21 11:12:54;;;;;;;;;6.50;4.00;;;;;18.77;43.74;101051.44;5066017;28;45662;-75
2022/02/21 11:15:20;;;;;;;;;5.00;3.25;;;;;18.99;43.72;101054.13;5064441;27;46193;-75
2022/02/21 11:17:46;;;;;;;;;8.25;4.00;;;;;19.21;43.37;101045.13;5066814;28;45581;-76
2022/02/21 11:20:11;;;;;;;;;7.75;4.50;;;;;19.42;43.04;101042.38;5065667;28;45824;-76
2022/02/21 11:22:37;;;;;;;;;6.25;3.25;;;;;19.65;42.99;101065.63;5062499;28;45560;-76
2022/02/21 11:25:24;;;;;;;;;2.75;2.75;;;;;19.84;42.66;101075.63;5065387;28;46951;-76
2022/02/21 11:28:11;;;;;;;;;5.00;3.00;;;;;20.06;42.09;101071.88;5062115;28;45389;-74
2022/02/21 11:30:38;;;;;;;;;4.67;3.67;;;;;20.23;42.16;101075.75;5065388;28;45716;-73
2022/02/21 11:33:14;;;;;;;;;10.00;5.67;;;;;20.41;42.06;101067.84;5065918;28;45667;-73
2022/02/21 11:36:07;;;;;;;;;7.67;3.67;;;;;20.60;41.89;101092.28;5064272;27;47132;-74
2022/02/21 11:38:34;;;;;;;;;7.33;3.67;;;;;20.77;41.42;101112.31;5064608;28;45573;-74
2022/02/21 11:41:07;;;;;;;;;5.67;4.00;;;;;20.90;41.62;101094.03;5067501;27;45434;-73
2022/02/21 11:43:39;;;;;;;;;4.67;3.00;;;;;21.02;41.17;101094.75;5064308;28;45541;-76
2022/02/21 11:46:31;;;;;;;;;10.00;5.33;;;;;21.12;41.37;101081.22;5047637;28;46096;-76
2022/02/21 11:49:06;;;;;;;;;5.33;3.00;;;;;21.22;40.61;101096.56;5041849;28;45581;-76
2022/02/21 11:51:39;;;;;;;;;6.00;6.00;;;;;21.29;40.02;101084.19;5048656;28;45612;-77
2022/02/21 11:54:13;;;;;;;;;11.00;7.67;;;;;21.35;39.57;101082.75;5049945;28;46429;-77
2022/02/21 11:56:48;;;;;;;;;7.00;4.33;;;;;21.38;39.47;101083.31;5050892;28;46510;-77
2022/02/21 11:59:22;;;;;;;;;7.00;7.00;;;;;21.43;38.61;101061.28;5048724;28;46363;-79
2022/02/21 12:01:49;;;;;;;;;3.00;3.00;;;;;21.38;36.65;101068.97;5053987;28;45408;-79
2022/02/21 12:04:17;;;;;;;;;7.33;4.00;;;;;21.29;36.92;101055.34;5052238;28;45752;-78
2022/02/21 12:06:59;;;;;;;;;6.00;4.33;;;;;21.26;37.38;101079.91;5048176;28;45973;-77
2022/02/21 12:09:26;;;;;;;;;3.00;3.00;;;;;21.28;37.78;101086.03;5045860;28;45719;-77
2022/02/21 12:11:52;;;;;;;;;6.33;3.67;;;;;21.35;37.65;101094.41;5048281;28;45454;-75
2022/02/21 12:14:19;;;;;;;;;3.67;3.00;;;;;21.43;37.75;101083.75;5050399;28;48715;-74
2022/02/21 12:16:56;;;;;;;;;5.00;4.33;;;;;21.51;38.62;101106.44;5052355;28;46470;-74
2022/02/21 12:19:32;;;;;;;;;10.00;6.33;;;;;21.58;38.76;101112.97;5051790;28;45441;-75
2022/02/21 12:22:15;;;;;;;;;9.00;7.33;;;;;21.65;39.05;101118.63;5040198;28;45592;-76
2022/02/21 12:25:05;;;;;;;;;7.33;6.00;;;;;21.71;38.38;101134.28;5048986;28;45494;-76
2022/02/21 12:27:31;;;;;;;;;5.67;5.33;;;;;21.69;39.19;101131.72;5040067;28;46274;-75
2022/02/21 12:29:56;;;;;;;;;6.00;3.00;;;;;21.71;39.33;101137.84;5051139;28;45556;-76
2022/02/21 12:32:27;;;;;;;;;7.33;6.00;;;;;21.76;39.21;101152.75;5051317;28;45462;-75
2022/02/21 12:34:53;;;;;;;;;4.67;4.67;;;;;21.78;39.02;101146.22;5051911;28;45543;-75
2022/02/21 12:37:19;;;;;;;;;5.67;5.00;;;;;21.81;39.47;101129.72;5049985;28;46281;-77
2022/02/21 12:39:46;;;;;;;;;6.00;4.67;;;;;21.85;39.74;101122.16;5042901;28;45528;-76
2022/02/21 12:42:12;;;;;;;;;7.67;6.33;;;;;21.88;39.95;101131.81;5048007;28;45759;-73
2022/02/21 12:44:39;;;;;;;;;5.33;3.00;;;;;21.94;40.01;101144.72;5051287;28;45487;-73
2022/02/21 12:47:05;;;;;;;;;6.00;4.33;;;;;22.03;39.73;101138.44;5047541;28;48386;-74
2022/02/21 12:49:36;;;;;;;;;8.67;6.00;;;;;22.11;40.21;101138.53;5053398;28;45450;-74
2022/02/21 12:52:07;;;;;;;;;8.00;5.00;;;;;22.19;40.00;101132.38;5051758;28;45518;-74
2022/02/21 12:54:52;;;;;;;;;7.67;5.00;;;;;22.29;40.34;101126.94;5048068;28;45439;-77
2022/02/21 12:57:19;;;;;;;;;4.00;4.00;;;;;22.40;40.39;101127.72;5044572;28;46396;-76
2022/02/21 12:59:50;;;;;;;;;5.67;4.33;;;;;22.50;39.76;101128.50;5046401;28;45566;-78
2022/02/21 13:02:17;;;;;;;;;5.00;5.00;;;;;22.56;39.95;101119.81;5052024;28;45812;-78
2022/02/21 13:04:42;;;;;;;;;5.33;4.67;;;;;22.58;38.69;101116.97;5050451;28;45602;-78
2022/02/21 13:07:10;;;;;;;;;7.00;3.00;;;;;22.54;39.03;101124.53;5050408;28;46988;-76
2022/02/21 13:09:37;;;;;;;;;3.00;3.00;;;;;22.50;38.69;101151.00;5048180;28;45570;-76
2022/02/21 13:12:03;;;;;;;;;8.33;5.33;;;;;22.48;39.19;101136.78;5041875;28;45360;-76
2022/02/21 13:14:33;;;;;;;;;3.00;3.00;;;;;22.43;38.78;101124.72;5052264;28;45482;-76
2022/02/21 13:17:01;;;;;;;;;9.33;4.67;;;;;22.40;38.32;101141.25;5047678;28;45608;-77
2022/02/21 13:19:29;;;;;;;;;4.33;4.00;;;;;22.36;38.23;101133.44;5052318;28;45391;-76
2022/02/21 13:21:56;;;;;;;;;5.00;3.00;;;;;22.28;35.48;101136.06;5047315;28;45680;-76
2022/02/21 13:24:23;;;;;;;;;6.00;4.00;;;;;22.11;35.04;101132.28;5051321;28;45625;-75
2022/02/21 13:26:53;;;;;;;;;6.33;4.00;;;;;21.91;34.84;101121.53;5044636;28;46279;-75
2022/02/21 13:29:35;;;;;;;;;5.33;5.33;;;;;21.74;34.57;101119.66;5048725;28;45530;-74
2022/02/21 13:32:05;;;;;;;;;6.00;4.67;;;;;21.63;35.02;101124.19;5046285;28;45471;-76
2022/02/21 13:34:50;;;;;;;;;9.00;4.67;;;;;21.62;35.72;101125.16;5049541;28;45414;-75
2022/02/21 13:37:31;;;;;;;;;4.00;3.33;;;;;21.66;35.78;101120.34;5049639;28;45506;-76
2022/02/21 13:40:08;;;;;;;;;2.67;2.67;;;;;21.73;35.83;101118.78;5044493;28;45426;-75
2022/02/21 13:42:34;;;;;;;;;9.00;4.00;;;;;21.78;35.81;101126.47;5038988;28;45546;-73
2022/02/21 13:45:22;;;;;;;;;4.00;4.00;;;;;21.87;36.13;101130.13;5049426;28;45397;-73
2022/02/21 13:48:04;;;;;;;;;6.00;4.67;;;;;21.91;36.28;101129.66;5050010;28;45567;-73
2022/02/21 13:50:38;;;;;;;;;7.33;5.33;;;;;21.94;35.49;101136.63;5051029;28;45465;-73
2022/02/21 13:53:05;;;;;;;;;8.00;3.00;;;;;21.95;35.87;101144.59;5053339;28;45539;-73
2022/02/21 13:55:30;;;;;;;;;5.33;4.00;;;;;21.95;36.47;101132.94;5041169;28;45444;-73
2022/02/21 13:58:27;;;;;;;;;6.00;4.33;;;;;21.96;36.44;101126.53;5047380;28;47050;-73
2022/02/21 14:00:53;;;;;;;;;5.33;3.33;;;;;21.99;36.58;101142.47;5046768;28;46448;-73
2022/02/21 14:03:18;;;;;;;;;5.67;2.67;;;;;22.03;36.64;101151.13;5046823;28;45518;-74
2022/02/21 14:06:00;;;;;;;;;6.00;5.00;;;;;22.05;36.68;101152.66;5043793;28;45397;-74
2022/02/21 14:08:42;;;;;;;;;7.00;3.00;;;;;22.08;36.78;101162.31;5048721;28;47356;-73
2022/02/21 14:11:09;;;;;;;;;4.33;4.33;;;;;22.10;37.36;101168.41;5048840;28;45463;-73
2022/02/21 14:13:35;;;;;;;;;3.67;2.00;;;;;22.15;37.18;101168.00;5043725;28;45458;-73
2022/02/21 14:16:01;;;;;;;;;3.33;3.33;;;;;22.17;37.50;101191.16;5048958;28;45355;-73
2022/02/21 14:18:27;;;;;;;;;3.33;1.67;;;;;22.21;37.49;101170.94;5050103;28;45626;-73
2022/02/21 14:20:52;;;;;;;;;4.33;3.00;;;;;22.23;37.48;101170.78;5049535;28;45569;-74
2022/02/21 14:23:18;;;;;;;;;5.33;2.00;;;;;22.27;37.62;101165.94;5049496;28;45750;-73
2022/02/21 14:25:43;;;;;;;;;2.33;2.00;;;;;22.30;37.60;101169.19;5051323;28;45438;-73
2022/02/21 14:28:10;;;;;;;;;2.33;1.67;;;;;22.32;37.71;101178.00;5049486;28;46242;-73
2022/02/21 14:30:36;;;;;;;;;5.67;4.00;;;;;22.36;38.07;101174.00;5045202;28;45644;-73
2022/02/21 14:33:01;;;;;;;;;4.00;4.00;;;;;22.40;38.01;101179.94;5047779;28;45807;-76
2022/02/21 14:35:29;;;;;;;;;3.33;2.00;;;;;22.46;37.60;101192.88;5047995;28;45610;-74
2022/02/21 14:37:54;;;;;;;;;6.33;1.67;;;;;22.53;37.78;101194.97;5049093;28;47169;-75
2022/02/21 14:40:19;;;;;;;;;4.33;4.00;;;;;22.56;37.60;101186.59;5043827;28;45731;-75
2022/02/21 14:42:45;;;;;;;;;7.00;3.00;;;;;22.58;38.50;101206.22;5046962;28;45442;-75
2022/02/21 14:45:10;;;;;;;;;5.00;4.00;;;;;22.57;37.99;101201.81;5044308;28;45839;-75
2022/02/21 14:47:35;;;;;;;;;5.00;2.00;;;;;22.56;37.76;101209.09;5054185;28;48391;-75
2022/02/21 14:50:01;;;;;;;;;3.33;1.00;;;;;22.54;37.69;101211.09;5037786;28;45655;-75
2022/02/21 14:52:26;;;;;;;;;5.00;2.33;;;;;22.53;38.07;101217.47;5050008;28;46491;-75
2022/02/21 14:54:51;;;;;;;;;3.33;2.33;;;;;22.51;38.13;101214.94;5046064;28;45562;-75
2022/02/21 14:57:20;;;;;;;;;4.33;2.00;;;;;22.49;38.18;101226.91;5050006;28;46870;-75
2022/02/21 14:59:45;;;;;;;;;6.00;2.33;;;;;22.51;38.21;101233.00;5049414;28;45412;-75
2022/02/21 15:02:11;;;;;;;;;5.00;2.00;;;;;22.51;38.17;101211.34;5047790;28;45458;-75
2022/02/21 15:04:36;;;;;;;;;1.00;1.00;;;;;22.49;37.48;101218.78;5049150;28;45374;-75
2022/02/21 15:07:02;;;;;;;;;1.33;1.33;;;;;22.48;38.04;101231.44;5046688;28;45994;-75
2022/02/21 15:09:27;;;;;;;;;3.00;3.00;;;;;22.47;37.82;101254.09;5041079;28;45530;-75
2022/02/21 15:11:54;;;;;;;;;4.00;2.00;;;;;22.45;38.21;101239.88;5046678;28;46365;-75
2022/02/21 15:14:19;;;;;;;;;3.00;3.00;;;;;22.43;37.99;101238.31;5048469;28;45470;-75
2022/02/21 15:16:44;;;;;;;;;2.00;2.00;;;;;22.41;37.84;101251.13;5050222;28;46000;-77
2022/02/21 15:19:11;;;;;;;;;1.67;1.67;;;;;22.41;37.96;101246.59;5042176;28;45566;-78
2022/02/21 15:21:36;;;;;;;;;16.33;8.33;;;;;22.44;36.12;101242.72;5046630;28;45669;-77
2022/02/21 15:24:03;;;;;;;;;13.00;10.00;;;;;22.44;36.67;101261.66;5042519;28;46038;-77
2022/02/21 15:26:30;;;;;;;;;10.00;7.67;;;;;22.38;36.60;101250.44;5045911;28;46346;-78
2022/02/21 15:28:57;;;;;;;;;9.00;6.00;;;;;22.30;36.42;101250.31;5045379;28;45454;-79
2022/02/21 15:31:22;;;;;;;;;10.67;7.33;;;;;22.28;36.45;101259.56;5043504;28;45612;-80
2022/02/21 15:33:48;;;;;;;;;9.67;6.67;;;;;22.23;36.21;101268.13;5049894;28;49497;-79
2022/02/21 15:36:13;;;;;;;;;8.33;6.33;;;;;22.18;35.66;101279.38;5045394;28;46472;-80
2022/02/21 15:38:39;;;;;;;;;7.00;5.00;;;;;22.15;36.26;101276.97;5044932;28;45877;-78
2022/02/21 15:41:08;;;;;;;;;7.00;6.00;;;;;22.15;36.51;101276.97;5046681;28;45736;-77
2022/02/21 15:43:33;;;;;;;;;9.00;5.67;;;;;22.18;36.50;101279.38;5048268;28;46991;-78
2022/02/21 15:45:59;;;;;;;;;13.67;9.67;;;;;22.15;36.86;101271.56;5044452;28;45580;-80
2022/02/21 15:48:24;;;;;;;;;10.00;7.67;;;;;22.15;36.73;101286.94;5047935;28;45506;-79
2022/02/21 15:50:49;;;;;;;;;6.33;6.00;;;;;22.17;37.01;101282.22;5043233;28;45636;-79
2022/02/21 15:53:15;;;;;;;;;8.33;6.33;;;;;22.18;37.04;101282.09;5046514;28;45539;-79
2022/02/21 15:55:43;;;;;;;;;11.00;5.00;;;;;22.23;37.45;101285.19;5051283;28;45568;-80
2022/02/21 15:58:09;;;;;;;;;7.33;6.00;;;;;22.28;37.86;101302.84;5046181;28;45541;-80
2022/02/21 16:00:34;;;;;;;;;5.00;5.00;;;;;22.35;37.77;101296.69;5050712;28;45478;-77
2022/02/21 16:02:59;;;;;;;;;8.00;5.00;;;;;22.44;37.36;101313.06;5047823;28;45745;-79
2022/02/21 16:05:25;;;;;;;;;7.67;6.00;;;;;22.51;37.70;101303.31;5048206;28;54345;-83
2022/02/21 16:07:50;;;;;;;;;7.67;7.33;;;;;22.59;38.12;101308.88;5053853;28;46263;-78
2022/02/21 16:10:15;;;;;;;;;11.33;8.00;;;;;22.67;37.82;101316.25;5051464;28;45564;-78
2022/02/21 16:12:41;;;;;;;;;19.67;12.33;;;;;22.75;37.48;101316.38;5046384;28;48060;-78
2022/02/21 16:15:06;;;;;;;;;13.00;10.00;;;;;22.83;38.02;101325.59;5055078;28;46091;-79
2022/02/21 16:17:33;;;;;;;;;12.67;9.33;;;;;22.87;37.73;101333.25;5052604;28;45753;-76
2022/02/21 16:19:59;;;;;;;;;11.67;8.67;;;;;22.92;37.83;101340.91;5049524;28;46437;-78
2022/02/21 16:22:24;;;;;;;;;12.33;7.67;;;;;22.99;37.72;101339.34;5052225;28;45741;-78
2022/02/21 16:24:50;;;;;;;;;12.33;8.33;;;;;23.06;37.88;101345.00;5051663;28;45914;-78
2022/02/21 16:27:15;;;;;;;;;9.33;7.67;;;;;23.08;38.08;101359.22;5042689;28;45545;-79
2022/02/21 16:29:40;;;;;;;;;12.33;7.00;;;;;23.11;38.10;101345.41;5054486;28;45635;-81
2022/02/21 16:32:06;;;;;;;;;12.00;7.00;;;;;23.14;37.76;101360.50;5051441;28;45522;-80
2022/02/21 16:34:31;;;;;;;;;13.33;9.00;;;;;23.14;38.03;101369.44;5052165;28;46840;-80
2022/02/21 16:36:56;;;;;;;;;10.00;6.00;;;;;23.16;38.19;101359.34;5052850;28;45814;-80
2022/02/21 16:39:22;;;;;;;;;7.00;6.00;;;;;23.15;38.33;101354.06;5051675;28;45838;-81
2022/02/21 16:41:47;;;;;;;;;7.33;6.00;;;;;23.15;38.13;101367.59;5050459;28;45670;-79
2022/02/21 16:44:12;;;;;;;;;14.67;6.33;;;;;23.17;38.17;101358.31;5051760;28;46457;-79
2022/02/21 16:46:38;;;;;;;;;8.00;5.00;;;;;23.17;38.46;101357.47;5047973;28;45395;-78
2022/02/21 16:49:03;;;;;;;;;7.33;5.67;;;;;23.24;38.51;101365.84;5048968;28;45573;-79
2022/02/21 16:51:28;;;;;;;;;10.33;5.67;;;;;23.34;38.56;101376.66;5048099;28;45451;-78
2022/02/21 16:53:54;;;;;;;;;7.33;5.33;;;;;23.46;38.58;101371.88;5051005;28;46510;-78
2022/02/21 16:56:19;;;;;;;;;8.00;7.00;;;;;23.56;38.58;101375.38;5048548;28;46575;-80
2022/02/21 16:58:45;;;;;;;;;6.67;6.33;;;;;23.67;38.75;101372.41;5050147;28;45469;-76
2022/02/21 17:01:10;;;;;;;;;9.33;5.00;;;;;23.77;38.43;101383.19;5048611;28;45494;-78
2022/02/21 17:03:35;;;;;;;;;10.00;6.00;;;;;23.86;38.31;101389.53;5048553;28;45399;-79
2022/02/21 17:06:04;;;;;;;;;8.67;5.33;;;;;23.93;38.34;101409.63;5047497;28;45475;-80
2022/02/21 17:08:30;;;;;;;;;10.33;6.67;;;;;23.91;38.20;101405.34;5047465;28;45570;-77
2022/02/21 17:10:56;;;;;;;;;8.00;5.00;;;;;23.85;37.63;101412.25;5052184;28;45491;-82
2022/02/21 17:13:23;;;;;;;;;17.33;12.67;;;;;23.86;38.22;101424.78;5043456;28;46177;-81
2022/02/21 17:15:50;;;;;;;;;10.33;5.33;;;;;23.87;39.11;101425.66;5049330;28;45909;-83
2022/02/21 17:18:17;;;;;;;;;11.67;7.33;;;;;23.77;39.50;101434.69;5051571;28;45511;-82
2022/02/21 17:20:45;;;;;;;;;7.00;5.00;;;;;23.66;39.29;101445.72;5049071;28;45694;-83
2022/02/21 17:23:10;;;;;;;;;9.00;5.67;;;;;23.59;39.66;101456.34;5036933;28;46110;-82
2022/02/21 17:25:35;;;;;;;;;10.67;5.00;;;;;23.53;39.35;101449.69;5051643;28;46050;-83
2022/02/21 17:28:01;;;;;;;;;9.67;7.00;;;;;23.62;39.56;101466.03;5047044;28;46644;-80
2022/02/21 17:30:26;;;;;;;;;8.67;6.33;;;;;23.68;39.61;101463.56;5048963;28;45774;-80
2022/02/21 17:32:51;;;;;;;;;4.50;4.50;;;;;23.78;39.71;101471.63;5048173;28;45440;-81
2022/02/21 17:35:17;;;;;;;;;13.33;6.67;;;;;23.85;39.70;101485.44;5050849;28;52058;-82
2022/02/21 17:37:42;;;;;;;;;9.33;9.33;;;;;23.90;39.60;101495.78;5050457;28;45470;-79
2022/02/21 17:40:08;;;;;;;;;12.00;5.67;;;;;23.94;39.46;101489.94;5048699;28;45732;-81
2022/02/21 17:42:33;;;;;;;;;13.33;8.33;;;;;23.99;39.75;101496.75;5044696;28;46428;-79
2022/02/21 17:44:58;;;;;;;;;9.33;7.00;;;;;24.05;39.66;101504.28;5043726;28;45512;-77
2022/02/21 17:47:24;;;;;;;;;7.67;4.67;;;;;24.08;39.61;101503.97;5046885;28;45467;-78
2022/02/21 17:49:49;;;;;;;;;8.67;5.33;;;;;24.13;39.54;101517.09;5047017;28;45520;-78
2022/02/21 17:52:14;;;;;;;;;10.33;7.00;;;;;24.14;39.74;101524.22;5051526;28;46904;-77
2022/02/21 17:54:40;;;;;;;;;9.00;6.50;;;;;24.16;39.71;101519.50;5041516;28;53972;-78
2022/02/21 17:57:05;;;;;;;;;4.00;4.00;;;;;24.13;39.80;101520.66;5047554;28;45440;-78
2022/02/21 17:59:30;;;;;;;;;9.67;4.00;;;;;24.16;39.72;101533.06;5045445;28;47243;-77
2022/02/21 18:01:57;;;;;;;;;7.00;7.00;;;;;24.19;39.73;101551.72;5052158;28;46348;-79
2022/02/21 18:04:22;;;;;;;;;7.00;5.33;;;;;24.22;39.90;101554.13;5049178;28;45510;-78
2022/02/21 18:06:48;;;;;;;;;9.33;4.00;;;;;24.26;39.68;101558.25;5044498;28;45436;-79
2022/02/21 18:09:14;;;;;;;;;7.00;5.00;;;;;24.24;39.76;101571.13;5045974;28;45573;-78
2022/02/21 18:11:39;;;;;;;;;7.67;3.67;;;;;24.25;39.66;101570.13;5048698;28;47094;-76
2022/02/21 18:14:06;;;;;;;;;9.33;4.00;;;;;24.22;39.48;101586.69;5046428;28;45535;-78
2022/02/21 18:16:32;;;;;;;;;13.00;6.67;;;;;24.24;39.80;101587.41;5050300;28;45440;-78
2022/02/21 18:18:57;;;;;;;;;6.00;5.33;;;;;24.23;39.75;101582.13;5048684;28;45554;-77
2022/02/21 18:21:28;;;;;;;;;6.33;6.33;;;;;24.21;39.66;101588.53;5045299;28;46110;-77
2022/02/21 18:23:54;;;;;;;;;7.00;4.00;;;;;24.16;40.00;101595.44;5040930;28;45902;-80
2022/02/21 18:26:19;;;;;;;;;7.67;3.67;;;;;24.14;39.99;101606.44;5045791;28;45824;-79
2022/02/21 18:28:44;;;;;;;;;4.00;4.00;;;;;24.14;40.04;101606.44;5050696;28;45556;-79
2022/02/21 18:31:10;;;;;;;;;4.33;4.33;;;;;24.11;40.01;101598.59;5030639;28;47029;-80
2022/02/21 18:33:35;;;;;;;;;4.33;3.67;;;;;24.13;39.72;101603.88;5047457;28;45431;-78
2022/02/21 18:36:01;;;;;;;;;4.67;4.67;;;;;24.12;39.69;101610.31;5049287;28;45403;-78
2022/02/21 18:38:27;;;;;;;;;5.00;4.67;;;;;24.07;39.43;101605.28;5045824;28;45578;-78
2022/02/21 18:40:52;;;;;;;;;9.00;5.33;;;;;24.02;39.81;101627.44;5047136;28;47097;-80
2022/02/21 18:43:18;;;;;;;;;6.00;4.00;;;;;24.01;38.63;101625.75;5048394;28;46474;-79
2022/02/21 18:45:46;;;;;;;;;4.00;3.00;;;;;24.05;38.35;101623.59;5049208;28;45450;-80
2022/02/21 18:48:12;;;;;;;;;4.00;4.00;;;;;23.99;38.15;101635.88;5059844;28;45611;-79
2022/02/21 18:50:38;;;;;;;;;5.33;3.67;;;;;23.92;37.86;101640.22;5048096;28;45583;-79
2022/02/21 18:53:03;;;;;;;;;4.00;3.00;;;;;23.81;38.06;101644.81;5040557;28;45530;-79
2022/02/21 18:55:29;;;;;;;;;6.33;5.33;;;;;23.67;37.97;101659.69;5049500;28;45341;-79
2022/02/21 18:57:56;;;;;;;;;2.67;2.67;;;;;23.58;38.37;101662.44;5050902;28;45606;-78
2022/02/21 19:00:23;;;;;;;;;3.00;3.00;;;;;23.49;38.18;101664.16;5047553;28;52618;-78
2022/02/21 19:02:49;;;;;;;;;3.67;2.67;;;;;23.41;38.05;101663.03;5050894;28;45516;-77
2022/02/21 19:05:16;;;;;;;;;8.00;3.33;;;;;23.32;38.28;101671.13;5049768;28;45583;-79
2022/02/21 19:07:41;;;;;;;;;5.00;4.00;;;;;23.23;38.31;101667.44;5051170;28;45473;-78
2022/02/21 19:10:07;;;;;;;;;4.33;2.33;;;;;23.17;38.31;101661.63;5051800;28;53996;-78
2022/02/21 19:12:32;;;;;;;;;3.33;2.00;;;;;23.11;38.51;101670.31;5050454;28;45862;-78
2022/02/21 19:14:57;;;;;;;;;6.67;3.33;;;;;23.09;38.92;101693.13;5043917;28;45576;-77
2022/02/21 19:17:23;;;;;;;;;8.67;5.00;;;;;23.07;38.96;101679.72;5048002;28;45650;-78
2022/02/21 19:19:48;;;;;;;;;5.00;3.67;;;;;23.10;38.90;101690.25;5047013;28;46194;-80
2022/02/21 19:22:13;;;;;;;;;4.33;4.33;;;;;23.13;38.79;101689.97;5040842;28;45748;-80
2022/02/21 19:24:40;;;;;;;;;6.00;3.00;;;;;23.18;38.76;101711.22;5047408;28;45531;-80
2022/02/21 19:27:05;;;;;;;;;8.33;6.00;;;;;23.19;38.56;101709.34;5050927;28;45561;-78
2022/02/21 19:29:31;;;;;;;;;9.67;6.00;;;;;23.16;38.72;101708.66;5052387;28;45543;-81
2022/02/21 19:31:56;;;;;;;;;4.33;4.00;;;;;23.17;39.11;101715.78;5058797;28;45464;-77
2022/02/21 19:34:21;;;;;;;;;7.00;6.00;;;;;23.20;39.10;101721.88;5053318;28;45424;-80
2022/02/21 19:36:47;;;;;;;;;5.00;5.00;;;;;23.18;38.83;101732.91;5048475;28;45441;-78
2022/02/21 19:39:12;;;;;;;;;7.00;5.33;;;;;23.18;38.79;101727.47;5048771;28;46168;-78
2022/02/21 19:41:38;;;;;;;;;8.00;4.67;;;;;23.17;39.05;101731.16;5052267;28;45447;-78
2022/02/21 19:44:03;;;;;;;;;6.00;4.33;;;;;23.19;39.19;101733.72;5044109;28;45518;-77
2022/02/21 19:46:29;;;;;;;;;4.00;2.67;;;;;23.20;38.93;101738.16;5046002;28;45506;-78
2022/02/21 19:48:55;;;;;;;;;4.33;3.33;;;;;23.20;39.11;101738.16;5050736;28;45489;-77
2022/02/21 19:51:20;;;;;;;;;8.67;5.67;;;;;23.17;39.53;101745.56;5050707;28;45446;-77
2022/02/21 19:53:47;;;;;;;;;4.00;4.00;;;;;23.19;39.33;101747.28;5052432;28;45759;-78
2022/02/21 19:56:16;;;;;;;;;6.00;5.00;;;;;23.15;39.15;101747.56;5050229;28;45612;-77
2022/02/21 19:58:41;;;;;;;;;4.67;3.00;;;;;23.14;39.10;101751.25;5051730;28;46153;-77
2022/02/21 20:01:07;;;;;;;;;4.33;3.67;;;;;23.14;39.56;101753.97;5039177;28;45650;-78
2022/02/21 20:03:33;;;;;;;;;4.67;4.00;;;;;23.17;39.71;101758.25;5045987;28;45510;-78
2022/02/21 20:05:58;;;;;;;;;5.67;4.00;;;;;23.20;39.67;101766.09;5050506;28;45300;-78
2022/02/21 20:08:24;;;;;;;;;5.00;3.00;;;;;23.20;39.50;101771.50;5049907;28;46266;-79
2022/02/21 20:10:50;;;;;;;;;6.00;3.33;;;;;23.25;40.04;101777.34;5046882;28;45495;-79
2022/02/21 20:13:16;;;;;;;;;6.67;3.67;;;;;23.25;39.65;101793.59;5041874;28;45777;-77
2022/02/21 20:15:41;;;;;;;;;5.00;3.00;;;;;23.20;39.72;101793.19;5050213;28;45472;-78
2022/02/21 20:18:07;;;;;;;;;3.00;3.00;;;;;23.14;39.95;101812.72;5047019;28;46488;-78
2022/02/21 20:20:33;;;;;;;;;6.33;3.00;;;;;23.11;40.28;101808.44;5048642;28;45457;-79
2022/02/21 20:22:59;;;;;;;;;5.00;3.33;;;;;23.09;39.97;101815.81;5037519;28;45633;-78
2022/02/21 20:25:24;;;;;;;;;4.00;4.00;;;;;23.06;40.06;101817.94;5047876;28;45373;-79
2022/02/21 20:27:50;;;;;;;;;4.00;4.00;;;;;23.03;39.77;101824.50;5048147;28;49937;-79
2022/02/21 20:30:17;;;;;;;;;5.33;3.67;;;;;22.99;40.42;101832.06;5049845;28;45522;-80
2022/02/21 20:32:43;;;;;;;;;7.67;3.33;;;;;23.01;39.88;101831.94;5046905;28;45456;-79
2022/02/21 20:35:09;;;;;;;;;3.67;3.00;;;;;23.01;40.13;101837.34;5051231;28;45372;-79
2022/02/21 20:37:34;;;;;;;;;3.67;3.67;;;;;23.00;39.95;101852.72;5049333;28;45447;-78
2022/02/21 20:40:00;;;;;;;;;2.00;2.00;;;;;23.01;40.02;101854.41;5035014;28;45910;-78
2022/02/21 20:42:25;;;;;;;;;5.33;3.00;;;;;23.01;40.33;101859.84;5044962;28;45493;-79
2022/02/21 20:44:51;;;;;;;;;6.00;4.00;;;;;23.02;40.28;101847.16;5047192;28;45476;-79
2022/02/21 20:47:17;;;;;;;;;3.00;3.00;;;;;23.01;39.90;101849.00;5049954;28;46197;-79
2022/02/21 20:49:42;;;;;;;;;4.00;4.00;;;;;23.01;40.02;101856.28;5052106;28;45459;-79
2022/02/21 20:52:08;;;;;;;;;6.00;4.67;;;;;22.99;40.51;101859.13;5044201;28;47656;-79
2022/02/21 20:54:33;;;;;;;;;5.00;3.33;;;;;22.99;40.44;101856.41;5047064;28;45557;-77
2022/02/21 20:56:59;;;;;;;;;3.33;3.33;;;;;22.97;40.63;101862.97;5044109;28;46121;-79